Time;durP1;ratioP1;P1;durP2;ratioP2;P2;SDS_P1;SDS_P2;PMS_P1;PMS_P2;Temp;Humidity;BMP_temperature;BMP_pressure;BME280_temperature;BME280_humidity;BME280_pressure;Samples;Min_cycle;Max_cycle;Signal;HPM_P1;HPM_P2
2022/06/04 00:00:17;;;;;;;5.35;4.45;;;;;;;19.03;53.77;99714.94;4973232;28;20249;-79
2022/06/04 00:02:44;;;;;;;7.13;4.32;;;;;;;19.04;53.82;99710.50;4973458;28;20026;-79
2022/06/04 00:05:12;;;;;;;6.53;4.07;;;;;;;18.96;53.91;99697.91;4973134;28;20479;-79
2022/06/04 00:07:38;;;;;;;6.00;4.55;;;;;;;19.00;54.18;99698.50;4973322;28;20038;-79
2022/06/04 00:15:40;;;;;;;4.75;4.15;;;;;;;18.99;54.34;99694.19;4973462;28;20597;-79
2022/06/04 00:18:05;;;;;;;4.85;4.15;;;;;;;18.94;54.31;99687.47;4972955;28;20121;-79
2022/06/04 00:20:31;;;;;;;6.72;4.43;;;;;;;18.90;54.70;99680.78;4972887;28;20458;-79
2022/06/04 00:23:05;;;;;;;10.02;4.88;;;;;;;18.92;54.46;99681.50;4956654;28;20130;-79
2022/06/04 00:25:32;;;;;;;5.05;4.40;;;;;;;18.93;54.40;99687.63;4988461;28;20101;-79
2022/06/04 00:27:59;;;;;;;5.43;4.50;;;;;;;18.94;54.44;99682.19;4994785;28;20382;-79
2022/06/04 00:30:25;;;;;;;7.45;5.20;;;;;;;18.91;54.66;99677.16;4994643;28;20030;-79
2022/06/04 00:32:50;;;;;;;6.47;4.60;;;;;;;18.90;54.32;99670.22;4994720;28;20077;-79
2022/06/04 00:35:16;;;;;;;6.80;4.60;;;;;;;18.90;54.46;99667.56;4993032;28;20538;-79
2022/06/04 00:37:42;;;;;;;6.45;4.30;;;;;;;18.85;54.45;99666.28;4994887;28;20465;-79
2022/06/04 00:40:11;;;;;;;5.25;4.75;;;;;;;18.81;54.63;99654.28;4993134;28;20105;-79
2022/06/04 00:42:36;;;;;;;6.20;4.68;;;;;;;18.79;54.55;99662.31;4994445;28;20032;-80
2022/06/04 00:45:20;;;;;;;6.03;4.60;;;;;;;18.80;54.81;99657.91;4994605;28;20109;-79
2022/06/04 00:47:46;;;;;;;6.82;4.95;;;;;;;18.76;55.08;99662.59;4993058;28;20061;-79
2022/06/04 00:50:15;;;;;;;5.18;4.68;;;;;;;18.70;55.25;99657.78;4992895;28;20433;-79
2022/06/04 00:52:42;;;;;;;6.07;5.20;;;;;;;18.68;54.97;99652.59;4994401;28;20026;-79
2022/06/04 00:55:08;;;;;;;6.18;4.25;;;;;;;18.67;55.34;99643.03;5004269;28;20052;-79
2022/06/04 00:57:55;;;;;;;6.30;4.75;;;;;;;18.67;55.18;99642.19;5014019;28;20025;-79
2022/06/04 01:00:36;;;;;;;7.45;4.75;;;;;;;18.56;55.19;99615.81;5013584;28;20046;-79
2022/06/04 01:03:29;;;;;;;5.68;4.60;;;;;;;18.66;55.04;99632.56;5013939;28;20134;-79
2022/06/04 01:06:13;;;;;;;8.00;4.80;;;;;;;18.65;54.88;99636.19;5012508;28;20054;-79
2022/06/04 01:08:38;;;;;;;4.55;4.15;;;;;;;18.62;54.95;99639.91;5012446;28;20389;-79
2022/06/04 01:11:19;;;;;;;5.45;4.10;;;;;;;18.61;55.52;99635.59;5013766;28;20026;-79
2022/06/04 01:13:48;;;;;;;5.88;4.80;;;;;;;18.58;55.35;99638.50;5013544;28;20025;-79
2022/06/04 01:16:25;;;;;;;8.15;4.57;;;;;;;18.55;55.48;99646.63;5013349;28;20029;-79
2022/06/04 01:19:06;;;;;;;4.80;4.30;;;;;;;18.52;55.70;99638.97;5012061;28;20501;-79
2022/06/04 01:21:50;;;;;;;;;;;;;;;18.49;55.50;99636.56;5012512;28;20183;-79
2022/06/04 01:24:27;;;;;;;5.28;4.35;;;;;;;18.47;56.05;99640.31;5013465;28;19917;-79
2022/06/04 01:27:09;;;;;;;5.53;4.70;;;;;;;18.38;56.04;99633.97;5013254;28;20109;-79
2022/06/04 01:29:43;;;;;;;6.32;4.13;;;;;;;18.39;56.03;99640.91;5013232;28;20032;-79
2022/06/04 01:32:18;;;;;;;4.95;4.45;;;;;;;18.35;55.88;99642.09;5013399;28;20026;-79
2022/06/04 01:34:55;;;;;;;5.88;4.18;;;;;;;18.33;56.01;99638.72;5013181;28;20088;-79
2022/06/04 01:37:32;;;;;;;4.57;4.03;;;;;;;18.26;55.76;99630.50;5012814;28;20405;-79
2022/06/04 01:42:47;;;;;;;4.80;4.13;;;;;;;18.31;55.77;99635.41;5013083;28;20040;-79
2022/06/04 01:45:16;;;;;;;5.40;4.47;;;;;;;18.29;55.87;99634.69;5012809;28;20030;-79
2022/06/04 01:47:46;;;;;;;4.55;3.90;;;;;;;18.18;55.94;99615.28;5012931;28;20025;-79
2022/06/04 01:50:16;;;;;;;5.80;4.35;;;;;;;18.23;56.00;99620.19;5012638;28;20041;-79
2022/06/04 01:52:42;;;;;;;5.68;4.38;;;;;;;18.25;55.90;99620.06;5011615;28;20606;-79
2022/06/04 01:55:14;;;;;;;5.95;4.05;;;;;;;18.23;56.27;99622.81;5024664;28;20053;-79
2022/06/04 01:57:46;;;;;;;5.68;4.38;;;;;;;18.19;56.13;99609.03;5032456;28;20036;-79
2022/06/04 02:00:16;;;;;;;5.47;4.03;;;;;;;18.10;56.26;99608.91;5014397;28;20120;-79
2022/06/04 02:03:05;;;;;;;7.38;4.25;;;;;;;18.10;56.04;99603.66;4990361;28;20519;-79
2022/06/04 02:05:38;;;;;;;4.40;3.92;;;;;;;18.17;55.95;99621.50;4913466;29;20040;-79
2022/06/04 02:08:06;;;;;;;4.35;3.95;;;;;;;18.16;56.15;99614.56;4913701;29;20040;-79
2022/06/04 02:11:03;;;;;;;5.00;4.10;;;;;;;18.14;56.42;99618.25;4913561;29;20055;-79
2022/06/04 02:13:29;;;;;;;4.50;4.00;;;;;;;18.07;56.60;99617.91;4860309;29;21136;-79
2022/06/04 02:16:04;;;;;;;5.60;4.15;;;;;;;18.11;56.52;99624.59;4860453;29;20479;-79
2022/06/04 02:18:29;;;;;;;4.65;3.88;;;;;;;18.04;56.85;99622.59;4875795;29;20037;-79
2022/06/04 02:20:55;;;;;;;4.72;4.03;;;;;;;18.06;56.81;99632.03;4875719;29;20474;-79
2022/06/04 02:23:21;;;;;;;6.40;4.22;;;;;;;18.05;57.01;99630.38;4875575;29;20096;-79
2022/06/04 02:25:47;;;;;;;6.35;3.97;;;;;;;18.01;57.12;99620.19;4860247;29;21037;-79
2022/06/04 02:28:12;;;;;;;4.40;4.00;;;;;;;18.00;57.02;99632.53;4860094;29;20067;-79
2022/06/04 02:31:00;;;;;;;7.30;4.00;;;;;;;18.02;57.36;99641.13;4860139;29;20037;-80
2022/06/04 02:33:48;;;;;;;4.65;4.03;;;;;;;17.99;57.13;99630.00;4890221;29;20036;-79
2022/06/04 02:36:29;;;;;;;5.82;3.90;;;;;;;17.99;57.28;99630.00;4894119;29;20048;-79
2022/06/04 02:39:09;;;;;;;6.82;4.15;;;;;;;17.98;57.22;99630.97;4894424;29;20093;-79
2022/06/04 02:41:59;;;;;;;4.78;4.07;;;;;;;17.98;56.88;99630.97;4895657;29;20104;-79
2022/06/04 02:44:29;;;;;;;5.00;3.95;;;;;;;17.92;57.25;99627.00;4912917;29;20066;-79
2022/06/04 02:47:05;;;;;;;6.72;4.10;;;;;;;17.99;57.23;99638.72;4913169;29;20087;-79
2022/06/04 02:49:37;;;;;;;4.80;4.25;;;;;;;17.99;57.06;99630.00;4919890;29;20039;-79
2022/06/04 02:52:03;;;;;;;7.35;3.83;;;;;;;17.99;57.26;99630.00;4931888;29;20070;-79
2022/06/04 02:54:34;;;;;;;7.30;4.85;;;;;;;18.02;57.41;99642.94;4931557;29;20052;-79
2022/06/04 02:57:03;;;;;;;4.25;3.80;;;;;;;18.02;57.40;99637.66;4932165;29;20027;-79
2022/06/04 02:59:33;;;;;;;6.45;4.10;;;;;;;17.97;57.31;99622.22;4931776;29;20066;-79
2022/06/04 03:02:01;;;;;;;5.57;4.68;;;;;;;18.02;57.42;99635.03;4916146;29;20062;-79
2022/06/04 03:04:27;;;;;;;5.75;4.20;;;;;;;18.02;57.20;99625.34;4931752;29;20035;-79
2022/06/04 03:06:52;;;;;;;4.97;4.10;;;;;;;18.04;57.37;99628.69;4931998;29;20047;-79
2022/06/04 03:09:19;;;;;;;7.30;4.88;;;;;;;18.06;57.36;99633.84;4931785;29;20039;-79
2022/06/04 03:11:48;;;;;;;4.32;3.90;;;;;;;17.99;57.39;99622.09;4932108;29;20411;-79
2022/06/04 03:14:16;;;;;;;6.03;4.75;;;;;;;18.06;57.24;99626.78;5018426;28;20183;-79
2022/06/04 03:16:44;;;;;;;6.30;4.25;;;;;;;18.02;57.50;99619.22;5031590;28;20033;-79
2022/06/04 03:19:10;;;;;;;5.13;4.38;;;;;;;18.05;57.54;99624.25;5031473;28;20721;-79
2022/06/04 03:21:37;;;;;;;6.13;4.28;;;;;;;17.98;57.34;99613.34;5013543;28;20115;-79
2022/06/04 03:24:04;;;;;;;6.15;4.45;;;;;;;18.06;57.79;99615.41;5031656;28;20025;-79
2022/06/04 03:26:29;;;;;;;4.95;4.30;;;;;;;18.04;57.74;99619.97;5013747;28;20071;-79
2022/06/04 03:28:55;;;;;;;5.63;4.68;;;;;;;18.02;58.21;99625.34;5013966;28;20025;-79
2022/06/04 03:31:20;;;;;;;7.95;4.60;;;;;;;18.00;58.09;99615.88;5013595;28;20021;-79
2022/06/04 03:33:46;;;;;;;5.45;4.60;;;;;;;17.98;58.16;99615.97;5017250;28;20500;-79
2022/06/04 03:36:11;;;;;;;4.88;4.38;;;;;;;18.08;58.51;99631.94;5035228;28;20021;-79
2022/06/04 03:38:37;;;;;;;5.65;4.57;;;;;;;18.07;58.43;99635.50;5017007;28;20034;-79
2022/06/04 03:41:03;;;;;;;5.35;4.50;;;;;;;18.01;58.79;99625.47;5017469;28;20029;-79
2022/06/04 03:43:29;;;;;;;5.20;4.72;;;;;;;18.06;58.67;99628.56;5017163;28;20030;-79
2022/06/04 03:45:55;;;;;;;6.15;4.78;;;;;;;18.04;59.13;99627.88;5017298;28;20505;-79
2022/06/04 03:48:22;;;;;;;7.32;4.97;;;;;;;18.06;59.35;99633.84;5034803;28;20035;-79
2022/06/04 03:50:48;;;;;;;7.07;4.90;;;;;;;18.02;59.70;99627.97;5034685;28;20045;-79
2022/06/04 03:53:14;;;;;;;5.53;4.65;;;;;;;18.00;59.54;99618.53;5016930;28;20497;-79
2022/06/04 03:55:39;;;;;;;6.47;4.85;;;;;;;17.98;59.60;99618.63;5016741;28;20046;-79
2022/06/04 03:58:05;;;;;;;5.07;4.57;;;;;;;17.98;59.36;99630.97;5035209;28;20032;-79
2022/06/04 04:00:30;;;;;;;7.53;5.00;;;;;;;17.98;59.80;99633.59;5034359;28;20405;-79
2022/06/04 04:03:07;;;;;;;6.07;5.45;;;;;;;17.97;59.72;99616.94;5034749;28;20076;-79
2022/06/04 04:05:41;;;;;;;5.47;4.78;;;;;;;17.97;59.73;99618.75;5016493;28;20052;-79
2022/06/04 04:08:08;;;;;;;5.97;4.70;;;;;;;17.95;59.98;99603.06;5016971;28;20586;-79
2022/06/04 04:10:35;;;;;;;5.30;4.68;;;;;;;18.03;60.10;99615.63;5034318;28;20061;-79
2022/06/04 04:13:00;;;;;;;6.55;4.80;;;;;;;17.99;60.27;99607.13;5034644;28;20461;-79
2022/06/04 04:15:26;;;;;;;5.47;4.95;;;;;;;18.07;60.42;99617.06;5016587;28;20036;-79
2022/06/04 04:17:52;;;;;;;5.50;4.25;;;;;;;18.06;60.58;99615.41;5034389;28;20130;-79
2022/06/04 04:20:24;;;;;;;5.40;4.90;;;;;;;18.09;60.93;99621.25;5034360;28;20029;-79
2022/06/04 04:22:49;;;;;;;5.50;4.63;;;;;;;18.11;60.87;99623.78;4992355;28;20049;-79
2022/06/04 04:25:17;;;;;;;6.20;4.82;;;;;;;18.15;60.98;99622.56;4992545;28;20046;-79
2022/06/04 04:27:43;;;;;;;6.05;4.78;;;;;;;18.13;61.22;99627.97;4992176;28;20486;-79
2022/06/04 04:30:12;;;;;;;7.53;4.68;;;;;;;18.22;61.16;99633.50;4992489;28;20035;-79
2022/06/04 04:32:37;;;;;;;6.22;4.85;;;;;;;18.24;61.48;99634.19;4992184;28;20213;-79
2022/06/04 04:35:07;;;;;;;4.95;4.00;;;;;;;18.26;61.65;99646.31;4992260;28;20089;-79
2022/06/04 04:37:33;;;;;;;6.32;4.55;;;;;;;18.23;61.41;99641.25;4975855;28;20069;-79
2022/06/04 04:39:59;;;;;;;5.07;4.57;;;;;;;18.17;61.69;99641.75;4992298;28;20038;-79
2022/06/04 04:42:24;;;;;;;9.63;4.43;;;;;;;18.23;61.75;99653.63;4975552;28;20088;-79
2022/06/04 04:44:50;;;;;;;6.60;4.72;;;;;;;18.15;62.18;99643.66;4975832;28;20031;-80
2022/06/04 04:47:16;;;;;;;5.70;4.45;;;;;;;18.22;62.37;99660.69;4992138;28;20038;-79
2022/06/04 04:49:42;;;;;;;5.82;4.60;;;;;;;18.19;62.87;99674.09;4975414;28;20744;-79
2022/06/04 04:52:07;;;;;;;6.43;4.50;;;;;;;18.14;63.78;99674.47;4992245;28;20054;-79
2022/06/04 04:54:33;;;;;;;5.43;4.53;;;;;;;18.14;64.77;99687.63;5024120;28;20463;-79
2022/06/04 04:56:59;;;;;;;5.80;4.53;;;;;;;18.16;65.69;99701.56;5034052;28;20037;-79
2022/06/04 04:59:25;;;;;;;6.60;4.90;;;;;;;18.11;66.97;99710.75;5015631;28;20040;-79
2022/06/04 05:01:50;;;;;;;5.45;4.85;;;;;;;18.10;68.76;99709.91;5033451;28;20021;-79
2022/06/04 05:04:16;;;;;;;5.63;5.07;;;;;;;18.01;70.36;99722.97;5015696;28;20037;-79
2022/06/04 05:06:41;;;;;;;6.45;4.90;;;;;;;17.90;72.28;99729.88;5033183;28;20401;-79
2022/06/04 05:09:08;;;;;;;5.80;5.20;;;;;;;17.88;73.71;99736.25;5033445;28;20077;-79
2022/06/04 05:11:34;;;;;;;6.13;4.97;;;;;;;17.81;74.17;99735.00;5033386;28;20033;-79
2022/06/04 05:14:01;;;;;;;5.90;5.30;;;;;;;17.67;75.46;99736.84;5033381;28;20025;-79
2022/06/04 05:16:30;;;;;;;6.47;4.90;;;;;;;17.64;75.78;99744.97;5015058;28;20216;-79
2022/06/04 05:18:56;;;;;;;5.88;4.97;;;;;;;17.54;76.56;99744.00;5033401;28;20091;-79
2022/06/04 05:21:27;;;;;;;5.88;5.07;;;;;;;17.56;77.76;99767.56;5033278;28;20045;-79
2022/06/04 05:23:56;;;;;;;6.55;5.80;;;;;;;17.41;79.11;99749.31;5033145;28;20039;-79
2022/06/04 05:26:23;;;;;;;7.13;6.10;;;;;;;17.37;79.11;99739.13;5015257;28;20387;-79
2022/06/04 05:28:49;;;;;;;7.57;6.22;;;;;;;17.33;80.68;99746.41;5015185;28;20447;-79
2022/06/04 05:31:15;;;;;;;8.73;6.20;;;;;;;17.20;82.01;99741.19;5032971;28;20022;-79
2022/06/04 05:33:41;;;;;;;7.57;6.40;;;;;;;17.18;84.15;99739.63;5032802;28;20112;-79
2022/06/04 05:36:07;;;;;;;7.32;5.85;;;;;;;17.11;84.86;99739.25;5015258;28;20470;-79
2022/06/04 05:38:34;;;;;;;7.82;5.85;;;;;;;17.16;85.02;99752.91;5014916;28;20021;-79
2022/06/04 05:41:09;;;;;;;7.03;6.03;;;;;;;17.13;86.48;99732.06;5032681;28;20538;-79
2022/06/04 05:43:35;;;;;;;7.95;6.30;;;;;;;17.19;87.05;99749.19;5014642;28;20040;-79
2022/06/04 05:46:03;;;;;;;7.88;6.70;;;;;;;17.16;86.35;99752.06;5015194;28;20049;-79
2022/06/04 05:48:30;;;;;;;9.10;8.20;;;;;;;17.18;88.02;99756.25;5014780;28;20025;-79
2022/06/04 05:50:57;;;;;;;8.07;7.28;;;;;;;17.16;88.46;99757.31;5015011;28;20366;-79
2022/06/04 05:53:23;;;;;;;6.82;5.90;;;;;;;17.15;88.97;99747.72;5014862;28;20122;-79
2022/06/04 05:55:50;;;;;;;8.98;8.07;;;;;;;17.19;90.33;99746.56;5031664;28;20124;-79
2022/06/04 05:58:15;;;;;;;10.07;8.30;;;;;;;17.18;90.83;99735.19;5032417;28;20052;-79
2022/06/04 06:00:41;;;;;;;8.93;6.93;;;;;;;17.26;91.76;99746.97;5032440;28;20033;-80
2022/06/04 06:03:07;;;;;;;7.85;7.05;;;;;;;17.27;91.35;99738.09;5014754;28;20082;-80
2022/06/04 06:05:32;;;;;;;8.93;7.03;;;;;;;17.37;91.12;99744.41;5032190;28;20381;-79
2022/06/04 06:07:58;;;;;;;11.30;7.43;;;;;;;17.38;91.58;99748.69;5032366;28;20025;-79
2022/06/04 06:10:24;;;;;;;8.90;6.72;;;;;;;17.42;91.64;99753.63;5014428;28;20033;-79
2022/06/04 06:12:49;;;;;;;9.15;7.03;;;;;;;17.36;92.45;99745.31;5031702;28;20048;-79
2022/06/04 06:15:15;;;;;;;11.55;7.72;;;;;;;17.42;93.29;99747.53;5014410;28;20168;-79
2022/06/04 06:17:41;;;;;;;9.00;7.18;;;;;;;17.35;93.63;99744.50;5014015;28;20033;-79
2022/06/04 06:20:08;;;;;;;11.90;7.57;;;;;;;17.33;94.26;99741.16;5032277;28;20037;-79
2022/06/04 06:22:35;;;;;;;8.63;7.45;;;;;;;17.37;95.53;99734.69;5014303;28;20527;-79
2022/06/04 06:25:04;;;;;;;10.45;8.13;;;;;;;17.41;96.21;99738.78;5032025;28;20037;-80
2022/06/04 06:27:29;;;;;;;8.75;7.82;;;;;;;17.44;96.41;99730.69;5031866;28;20377;-79
2022/06/04 06:29:55;;;;;;;8.38;7.57;;;;;;;17.51;96.73;99727.56;5032101;28;20112;-79
2022/06/04 06:32:21;;;;;;;9.77;8.30;;;;;;;17.64;97.76;99729.19;5014399;28;20064;-79
2022/06/04 06:34:47;;;;;;;10.27;8.57;;;;;;;17.73;96.67;99721.53;5031840;28;20064;-79
2022/06/04 06:37:12;;;;;;;9.68;8.32;;;;;;;17.93;95.72;99732.28;5032273;28;20105;-79
2022/06/04 06:39:38;;;;;;;9.38;8.48;;;;;;;18.09;94.95;99729.34;5013819;28;20030;-79
2022/06/04 06:42:04;;;;;;;10.40;8.40;;;;;;;18.25;93.23;99733.44;5014078;28;20026;-79
2022/06/04 06:44:29;;;;;;;10.32;8.32;;;;;;;18.34;92.76;99725.66;5014058;28;20037;-79
2022/06/04 06:46:55;;;;;;;9.32;8.38;;;;;;;18.45;92.30;99733.53;5032216;28;20022;-79
2022/06/04 06:49:24;;;;;;;8.23;7.43;;;;;;;18.43;92.02;99721.47;5032125;28;20095;-79
2022/06/04 06:51:54;;;;;;;8.57;7.63;;;;;;;18.48;91.74;99729.84;5013609;28;20112;-79
2022/06/04 06:54:21;;;;;;;8.52;7.75;;;;;;;18.54;91.53;99723.22;5031534;28;20049;-79
2022/06/04 06:56:48;;;;;;;9.73;7.40;;;;;;;18.51;91.35;99726.13;5013719;28;20493;-80
2022/06/04 06:59:14;;;;;;;10.13;7.00;;;;;;;18.54;90.94;99734.66;5014164;28;20036;-80
2022/06/04 07:01:42;;;;;;;8.55;7.55;;;;;;;18.54;90.54;99737.28;5031757;28;20030;-79
2022/06/04 07:04:09;;;;;;;9.50;7.20;;;;;;;18.45;90.47;99724.78;5032126;28;20021;-79
2022/06/04 07:06:38;;;;;;;10.35;7.43;;;;;;;18.43;90.12;99729.38;4989780;28;20097;-79
2022/06/04 07:09:16;;;;;;;8.30;6.90;;;;;;;18.47;89.65;99736.09;4977548;28;20648;-79
2022/06/04 07:11:41;;;;;;;9.10;6.97;;;;;;;18.56;89.97;99732.72;4993929;28;20046;-79
2022/06/04 07:14:07;;;;;;;10.88;9.43;;;;;;;18.75;89.45;99732.16;4977502;28;20121;-79
2022/06/04 07:16:33;;;;;;;11.55;9.25;;;;;;;18.86;89.39;99737.41;4993546;28;20039;-80
2022/06/04 07:19:00;;;;;;;8.25;7.45;;;;;;;19.01;88.63;99742.44;4993945;28;20042;-79
2022/06/04 07:21:26;;;;;;;8.45;7.15;;;;;;;19.05;87.91;99742.06;4977296;28;20097;-79
2022/06/04 07:23:53;;;;;;;10.23;6.97;;;;;;;19.13;88.41;99751.97;4993504;28;20098;-79
2022/06/04 07:26:20;;;;;;;8.77;6.93;;;;;;;19.07;88.29;99747.22;4977193;28;20572;-79
2022/06/04 07:28:45;;;;;;;8.00;6.63;;;;;;;19.03;88.15;99738.69;4977051;28;20390;-79
2022/06/04 07:31:13;;;;;;;7.55;6.75;;;;;;;19.05;87.67;99751.78;4993592;28;20030;-79
2022/06/04 07:33:42;;;;;;;9.25;6.65;;;;;;;19.01;87.65;99745.91;4976979;28;20034;-79
2022/06/04 07:36:14;;;;;;;9.45;6.97;;;;;;;19.04;88.07;99747.44;4993418;28;20057;-79
2022/06/04 07:38:39;;;;;;;7.88;7.07;;;;;;;18.99;88.21;99741.69;5015116;28;20033;-79
2022/06/04 07:41:05;;;;;;;9.75;8.07;;;;;;;19.01;88.27;99748.53;5035266;28;20033;-79
2022/06/04 07:43:30;;;;;;;10.45;8.02;;;;;;;18.99;88.57;99747.81;5035099;28;20026;-79
2022/06/04 07:45:55;;;;;;;11.05;9.13;;;;;;;19.06;89.33;99756.94;5017084;28;20037;-79
2022/06/04 07:48:21;;;;;;;12.48;10.05;;;;;;;19.12;90.29;99758.22;5035027;28;20473;-79
2022/06/04 07:50:46;;;;;;;8.93;8.02;;;;;;;19.10;90.40;99750.44;5034598;28;20021;-79
2022/06/04 07:53:12;;;;;;;10.30;8.40;;;;;;;19.10;89.56;99747.81;5017347;28;20036;-79
2022/06/04 07:55:40;;;;;;;8.60;7.68;;;;;;;19.14;89.13;99741.31;5016837;28;20509;-79
2022/06/04 07:58:05;;;;;;;8.65;6.95;;;;;;;19.24;88.75;99735.28;5035011;28;20025;-79
2022/06/04 08:00:31;;;;;;;11.90;9.20;;;;;;;19.31;88.27;99732.03;5034712;28;20388;-79
2022/06/04 08:02:57;;;;;;;12.18;8.93;;;;;;;19.37;87.69;99722.75;5034565;28;20025;-79
2022/06/04 08:05:22;;;;;;;10.30;8.98;;;;;;;19.45;87.27;99729.09;5034569;28;20076;-79
2022/06/04 08:07:48;;;;;;;9.55;8.10;;;;;;;19.53;86.51;99732.91;5034655;28;20105;-79
2022/06/04 08:10:14;;;;;;;17.55;12.93;;;;;;;19.65;85.85;99730.13;5034796;28;20083;-79
2022/06/04 08:12:46;;;;;;;8.07;7.13;;;;;;;19.83;84.30;99740.94;5016717;28;20022;-79
2022/06/04 08:15:11;;;;;;;7.43;6.30;;;;;;;20.09;83.42;99746.69;5035011;28;20029;-79
2022/06/04 08:17:37;;;;;;;7.45;5.85;;;;;;;20.35;82.86;99748.91;5016115;28;20109;-79
2022/06/04 08:20:03;;;;;;;6.28;5.68;;;;;;;20.47;82.11;99745.22;5034489;28;20108;-79
2022/06/04 08:22:28;;;;;;;10.32;6.75;;;;;;;20.53;81.90;99735.97;5016833;28;20025;-80
2022/06/04 08:24:54;;;;;;;7.47;6.63;;;;;;;20.71;81.29;99747.59;5016536;28;20223;-80
2022/06/04 08:27:19;;;;;;;8.18;6.80;;;;;;;21.01;80.21;99730.81;5016671;28;20567;-80
2022/06/04 08:29:44;;;;;;;8.13;5.93;;;;;;;21.31;77.34;99753.72;5034126;28;20531;-80
2022/06/04 08:32:12;;;;;;;5.88;5.28;;;;;;;21.36;76.30;99755.97;5034239;28;20034;-80
2022/06/04 08:34:37;;;;;;;7.03;6.32;;;;;;;21.36;76.22;99740.94;5016210;28;20172;-80
2022/06/04 08:37:04;;;;;;;8.15;5.78;;;;;;;21.71;76.08;99747.50;5034383;28;20452;-79
2022/06/04 08:39:30;;;;;;;7.07;5.65;;;;;;;22.17;75.08;99760.03;5034162;28;20021;-80
2022/06/04 08:42:11;;;;;;;6.88;5.38;;;;;;;22.50;73.37;99764.94;5016131;28;20404;-80
2022/06/04 08:44:39;;;;;;;5.40;4.90;;;;;;;22.56;72.61;99751.94;5033853;28;20101;-80
2022/06/04 08:47:10;;;;;;;5.97;4.53;;;;;;;22.41;72.13;99748.09;5033858;28;20048;-80
2022/06/04 08:49:42;;;;;;;5.30;4.80;;;;;;;22.31;72.47;99766.69;5033892;28;20044;-80
2022/06/04 08:52:28;;;;;;;5.05;4.55;;;;;;;22.22;72.11;99764.91;5016114;28;20032;-80
2022/06/04 08:57:50;;;;;;;11.38;6.28;;;;;;;21.95;74.32;99772.72;5033817;28;20040;-80
2022/06/04 09:00:24;;;;;;;6.47;5.40;;;;;;;21.81;74.66;99777.47;5033764;28;20033;-80
2022/06/04 09:03:09;;;;;;;8.85;6.45;;;;;;;21.76;75.38;99777.06;5033494;28;20029;-80
2022/06/04 09:06:06;;;;;;;8.98;7.03;;;;;;;21.73;75.74;99787.94;5015801;28;20025;-80
2022/06/04 09:08:43;;;;;;;7.45;6.28;;;;;;;21.80;75.88;99793.53;5033638;28;20516;-81
2022/06/04 09:11:16;;;;;;;8.18;6.70;;;;;;;21.78;75.83;99791.00;5033543;28;20039;-80
2022/06/04 09:14:07;;;;;;;7.72;6.90;;;;;;;21.76;76.34;99797.44;5015436;28;20462;-80
2022/06/04 09:16:36;;;;;;;;;;;;;;;21.85;76.73;99789.50;5033978;28;20067;-80
2022/06/04 09:19:13;;;;;;;8.60;7.30;;;;;;;21.98;76.50;99791.84;5033031;28;19913;-80
2022/06/04 09:21:40;;;;;;;11.80;10.10;;;;;;;22.06;75.41;99788.50;5033112;28;20051;-80
2022/06/04 09:24:05;;;;;;;64.97;35.45;;;;;;;22.02;75.32;99789.75;5015480;28;20120;-80
2022/06/04 09:27:00;;;;;;;32.08;20.10;;;;;;;22.01;74.83;99796.88;5015567;28;20055;-80
2022/06/04 09:29:49;;;;;;;12.55;9.50;;;;;;;22.02;75.33;99805.66;5014856;28;20056;-80
2022/06/04 09:33:00;;;;;;;12.13;8.15;;;;;;;21.99;75.52;99805.94;5032564;28;20029;-80
2022/06/04 09:35:30;;;;;;;11.90;8.55;;;;;;;21.93;75.79;99799.41;5032551;28;20528;-80
2022/06/04 09:37:55;;;;;;;8.95;8.05;;;;;;;22.01;75.16;99802.19;5032546;28;20441;-80
2022/06/04 09:40:32;;;;;;;10.80;8.45;;;;;;;22.21;73.82;99811.00;5032875;28;20017;-79
2022/06/04 09:43:13;;;;;;;11.15;8.57;;;;;;;22.24;73.00;99809.84;5032382;28;20037;-79
2022/06/04 09:45:38;;;;;;;13.60;9.38;;;;;;;22.27;72.91;99821.03;5032639;28;20113;-79
2022/06/04 09:48:14;;;;;;;10.73;8.13;;;;;;;22.24;73.28;99807.22;5014638;28;20112;-79
2022/06/04 09:50:41;;;;;;;8.50;7.68;;;;;;;22.24;73.25;99797.44;5030793;28;20025;-79
2022/06/04 09:53:09;;;;;;;11.85;7.97;;;;;;;22.33;73.25;99814.31;5014423;28;20064;-80
2022/06/04 09:55:37;;;;;;;7.45;6.75;;;;;;;22.33;73.51;99809.00;5032388;28;20052;-79
2022/06/04 09:58:07;;;;;;;9.85;8.45;;;;;;;22.26;73.94;99805.25;5032326;28;20516;-79
2022/06/04 10:00:36;;;;;;;9.05;7.95;;;;;;;22.19;73.60;99810.28;5032205;28;20021;-79
2022/06/04 10:03:13;;;;;;;8.55;7.65;;;;;;;22.00;74.07;99805.81;5031978;28;20029;-77
2022/06/04 10:05:52;;;;;;;9.00;8.10;;;;;;;22.03;74.13;99817.94;5032144;28;20029;-78
2022/06/04 10:08:25;;;;;;;9.85;8.13;;;;;;;22.21;74.16;99818.97;5013914;28;20068;-78
2022/06/04 10:11:06;;;;;;;10.40;7.00;;;;;;;22.55;73.36;99821.97;5031080;28;20488;-78
2022/06/04 10:13:49;;;;;;;;;;;;;;;22.97;71.95;99821.56;5032335;28;20444;-78
2022/06/04 10:16:35;;;;;;;8.02;6.53;;;;;;;23.13;69.14;99820.91;5014213;28;19909;-79
2022/06/04 10:19:17;;;;;;;8.45;7.03;;;;;;;23.06;67.29;99814.53;5032352;28;20087;-79
2022/06/04 10:21:46;;;;;;;10.38;5.78;;;;;;;22.92;67.21;99807.84;5031976;28;20380;-79
2022/06/04 10:24:27;;;;;;;8.05;6.45;;;;;;;23.03;66.74;99806.84;5032023;28;20107;-79
2022/06/04 10:27:03;;;;;;;7.22;5.90;;;;;;;22.98;65.28;99801.97;5013700;28;20515;-79
2022/06/04 10:29:56;;;;;;;7.70;5.45;;;;;;;22.90;65.47;99817.81;5014331;28;20037;-78
2022/06/04 10:32:39;;;;;;;7.45;5.65;;;;;;;22.99;64.94;99827.53;5014192;28;20037;-79
2022/06/04 10:35:34;;;;;;;6.10;5.47;;;;;;;23.07;63.02;99816.19;5013596;28;20053;-79
2022/06/04 10:38:24;;;;;;;5.07;4.65;;;;;;;23.37;62.29;99818.53;5031635;28;20033;-79
2022/06/04 10:41:19;;;;;;;5.40;4.85;;;;;;;23.69;61.08;99819.06;5031197;28;20377;-79
2022/06/04 10:44:06;;;;;;;6.38;4.90;;;;;;;23.94;60.30;99820.13;5031397;28;20469;-79
2022/06/04 10:46:37;;;;;;;5.72;4.70;;;;;;;24.03;59.71;99819.19;5031663;28;20511;-79
2022/06/04 10:49:21;;;;;;;7.32;4.93;;;;;;;24.15;59.25;99829.44;5031503;28;20029;-79
2022/06/04 10:51:55;;;;;;;5.72;5.00;;;;;;;24.09;59.09;99832.72;5031241;28;20036;-79
2022/06/04 10:54:52;;;;;;;6.63;4.82;;;;;;;24.12;59.05;99828.91;5031304;28;20485;-79
2022/06/04 10:57:25;;;;;;;6.60;5.07;;;;;;;24.18;58.49;99838.94;5031446;28;20025;-79
2022/06/04 11:00:04;;;;;;;5.63;5.05;;;;;;;24.27;58.34;99827.38;5013423;28;20495;-79
2022/06/04 11:02:57;;;;;;;7.50;6.03;;;;;;;24.29;57.36;99835.19;5031008;28;20021;-78
2022/06/04 11:05:50;;;;;;;5.38;4.82;;;;;;;24.22;55.96;99834.97;5031197;28;20032;-79
2022/06/04 11:08:22;;;;;;;6.03;4.65;;;;;;;24.30;55.75;99839.53;4946658;29;20519;-79
2022/06/04 11:10:53;;;;;;;7.18;5.28;;;;;;;24.29;55.18;99835.19;4934428;29;20057;-78
2022/06/04 11:13:22;;;;;;;5.57;5.00;;;;;;;24.32;56.20;99846.38;4934163;29;20036;-79
2022/06/04 11:16:10;;;;;;;6.47;5.82;;;;;;;24.52;55.66;99844.38;4934534;29;20035;-78
2022/06/04 11:18:42;;;;;;;7.20;5.90;;;;;;;24.48;55.89;99844.84;4934709;29;20062;-79
2022/06/04 11:21:29;;;;;;;6.72;5.25;;;;;;;24.40;56.09;99850.97;4950561;29;20504;-79
2022/06/04 11:24:35;;;;;;;5.60;4.97;;;;;;;24.45;54.77;99842.50;4950592;29;20109;-79
2022/06/04 11:27:17;;;;;;;5.72;4.50;;;;;;;24.45;54.69;99842.50;4912424;29;20075;-80
2022/06/04 11:29:43;;;;;;;5.75;4.90;;;;;;;24.32;54.44;99832.25;4912640;29;20035;-80
2022/06/04 11:32:52;;;;;;;5.60;4.75;;;;;;;24.24;54.75;99850.81;4912370;29;20123;-80
2022/06/04 11:35:30;;;;;;;7.25;4.47;;;;;;;24.19;55.32;99843.28;4912414;29;20472;-80
2022/06/04 11:37:59;;;;;;;6.13;4.43;;;;;;;24.25;54.84;99849.81;4912193;29;20044;-80
2022/06/04 11:40:49;;;;;;;4.75;4.22;;;;;;;24.33;54.76;99856.03;4912722;29;20132;-80
2022/06/04 11:43:50;;;;;;;5.20;4.68;;;;;;;24.35;55.72;99851.38;4896574;29;20607;-81
2022/06/04 11:46:26;;;;;;;5.95;4.40;;;;;;;24.44;55.58;99854.13;4982283;28;20149;-80
2022/06/04 11:49:03;;;;;;;6.10;4.47;;;;;;;24.38;55.20;99844.94;4972618;28;20114;-81
2022/06/04 11:51:41;;;;;;;5.10;4.60;;;;;;;24.36;55.22;99855.72;4972674;28;20374;-81
2022/06/04 11:54:40;;;;;;;5.18;4.65;;;;;;;24.27;56.50;99845.16;4991183;28;20061;-81
2022/06/04 11:57:15;;;;;;;6.27;4.53;;;;;;;24.04;57.02;99839.50;4992237;28;20038;-82
2022/06/04 12:00:12;;;;;;;6.63;4.40;;;;;;;24.06;57.72;99850.81;4992802;28;20089;-81
2022/06/04 12:02:53;;;;;;;5.20;4.55;;;;;;;23.93;58.40;99845.88;5002903;28;20041;-81
2022/06/04 12:05:41;;;;;;;5.15;4.65;;;;;;;23.78;59.31;99831.44;5016896;28;20112;-81